Weather at Girona Airport

Public forecast

Using degrees Celsius for public forecast. Weather courtesy of forecast.io.

Current aviation weather report (METAR) for Girona Airport

Retrieved 2020/09/26 18:30 UTC (13 minutes ago):

LEGE 261830Z VRB01KT 9999 FEW080 16/09 Q1006

Aviation forecast (TAF) for Girona Airport

Retrieved 2020/09/26 18:27 UTC (16 minutes ago):

TAF LEGE 261700Z 2618/2718 18010KT 9999 FEW050 TX21/2713Z TN07/2706Z BECMG 2618/2620 02009KT TEMPO 2620/2624 4000 RADZ BKN010 BECMG 2710/2712 09010KT